Main page
METAR-TAF:

METAR-TAF

Airports :

Salon-de-Provence Air Base

Salon-de-Provence, France

latitude: 43-36N, longitude: 005-06E, elevation: 59 m

Current weather observation

The report was made 35 minutes ago, at 18:30 UTC
Wind 11 kt from the South/Southeast
Temperature 14°C
Humidity 63%
Pressure 1012 hPa
Visibility 10 km or more
no clouds below 1500 m and no cumulonimbus

METAR: LFMY 241830Z AUTO 15011KT CAVOK 14/07 Q1012

Time: 21:05 (19:05 UTC)

Forecast

The report was made 5 hours and 5 minutes ago, at 14:00 UTC
Forecast valid from 24 at 15 UTC to 25 at 15 UTC
Wind 15 kt from the South with gusts up to 25 kt
Visibility 10 km or more
Scattered clouds at a height of 3000 ft
Temporary
from 24 at 19 UTC to 25 at 07 UTC
Wind 15 kt from the East/Southeast

TAF: LFMY 241400Z 2415/2515 18015G25KT 9999 SCT030 TEMPO 2419/2507 12015KT

Weather observations and forecasts of more than 4000 airports (METAR and TAF reports).

The available stations are represented by yellow and red dots on the map.

Hover mouse over dot to see the name of the station.

Then click to see weather observations and forecasts.

To change the map : click on the green buttons with a black cross to zoom in, on the green button with a dash to zoom out, or on the green arrows for adjacent maps.


METAR-TAF: